createdAt,value
2017-08-24T00:01:04.272Z,94.20
2017-08-24T00:03:30.799Z,94.30
2017-08-24T00:05:57.230Z,94.30
2017-08-24T00:08:23.669Z,94.30
2017-08-24T00:10:50.029Z,94.20
2017-08-24T00:13:16.469Z,94.20
2017-08-24T00:15:42.882Z,94.30
2017-08-24T00:18:09.629Z,94.30
2017-08-24T00:20:36.030Z,94.30
2017-08-24T00:23:02.406Z,94.40
2017-08-24T00:25:28.786Z,94.50
2017-08-24T00:27:55.756Z,94.60
2017-08-24T00:30:23.570Z,94.70
2017-08-24T00:32:50.065Z,94.90
2017-08-24T00:35:16.395Z,95.20
2017-08-24T00:37:42.807Z,95.00
2017-08-24T00:40:09.137Z,94.90
2017-08-24T00:42:35.852Z,94.70
2017-08-24T00:45:02.242Z,94.70
2017-08-24T00:47:28.610Z,94.70
2017-08-24T00:49:55.014Z,94.70
2017-08-24T00:52:21.442Z,94.70
2017-08-24T00:54:47.845Z,94.70
2017-08-24T00:57:14.219Z,94.70
2017-08-24T00:59:40.889Z,94.70
2017-08-24T01:02:07.367Z,94.80
2017-08-24T01:04:33.724Z,94.90
2017-08-24T01:07:00.054Z,95.00
2017-08-24T01:09:26.410Z,95.10
2017-08-24T01:11:52.810Z,95.20
2017-08-24T01:14:19.185Z,95.20
2017-08-24T01:16:45.570Z,95.30
2017-08-24T01:19:12.017Z,95.30
2017-08-24T01:21:38.767Z,95.30
2017-08-24T01:24:05.213Z,95.50
2017-08-24T01:26:31.659Z,95.20
2017-08-24T01:28:58.066Z,95.10
2017-08-24T01:31:24.461Z,95.10
2017-08-24T01:33:50.839Z,95.10
2017-08-24T01:36:17.226Z,95.10
2017-08-24T01:38:44.007Z,95.00
2017-08-24T01:41:10.998Z,95.00
2017-08-24T01:43:37.763Z,95.00
2017-08-24T01:46:04.779Z,95.10
2017-08-24T01:48:31.198Z,95.20
2017-08-24T01:50:57.573Z,95.20
2017-08-24T01:53:23.972Z,95.20
2017-08-24T01:55:50.352Z,95.30
2017-08-24T01:58:17.962Z,95.30
2017-08-24T02:00:44.735Z,95.30
2017-08-24T02:03:11.204Z,95.30
2017-08-24T02:05:37.565Z,95.40
2017-08-24T02:10:36.970Z,95.60
2017-08-24T02:13:03.358Z,95.50
2017-08-24T02:15:30.094Z,95.50
2017-08-24T02:17:56.513Z,95.60
2017-08-24T02:20:22.883Z,95.60
2017-08-24T02:22:49.669Z,95.80
2017-08-24T02:25:16.080Z,95.50
2017-08-24T02:27:42.461Z,95.50
2017-08-24T02:30:08.953Z,95.50
2017-08-24T02:32:35.307Z,95.50
2017-08-24T02:35:02.056Z,95.50
2017-08-24T02:37:28.518Z,95.50
2017-08-24T02:39:54.879Z,95.60
2017-08-24T02:42:21.289Z,95.60
2017-08-24T02:44:47.675Z,95.70
2017-08-24T02:47:14.053Z,95.70
2017-08-24T02:49:40.489Z,95.70
2017-08-24T02:52:06.850Z,95.80
2017-08-24T02:54:33.237Z,95.80
2017-08-24T02:57:00.029Z,95.80
2017-08-24T02:59:26.384Z,95.80
2017-08-24T03:01:52.794Z,95.80
2017-08-24T03:04:19.188Z,95.80
2017-08-24T03:06:45.565Z,95.90
2017-08-24T03:09:11.959Z,95.90
2017-08-24T03:11:38.331Z,95.90
2017-08-24T03:14:04.793Z,95.90
2017-08-24T03:16:31.149Z,95.80
2017-08-24T03:18:57.523Z,95.80
2017-08-24T03:21:23.890Z,95.70
2017-08-24T03:23:50.602Z,95.70
2017-08-24T03:26:16.971Z,95.70
2017-08-24T03:28:43.364Z,95.80
2017-08-24T03:31:09.759Z,95.80
2017-08-24T03:33:36.136Z,95.90
2017-08-24T03:36:02.542Z,96.00
2017-08-24T03:38:28.929Z,96.00
2017-08-24T03:40:55.521Z,96.00
2017-08-24T03:43:21.892Z,96.00
2017-08-24T03:45:48.639Z,96.00
2017-08-24T03:48:15.035Z,96.00
2017-08-24T03:50:41.424Z,96.00
2017-08-24T03:53:07.837Z,95.90
2017-08-24T03:55:34.248Z,95.80
2017-08-24T03:58:00.617Z,96.20
2017-08-24T04:00:27.075Z,95.80
2017-08-24T04:02:53.522Z,95.90
2017-08-24T04:05:19.956Z,96.00
2017-08-24T04:07:46.723Z,96.60
2017-08-24T04:10:13.016Z,96.20
2017-08-24T04:12:39.402Z,96.20
2017-08-24T04:15:05.791Z,96.20
2017-08-24T04:17:34.235Z,96.10
2017-08-24T04:20:01.926Z,96.10
2017-08-24T04:22:28.974Z,96.10
2017-08-24T04:24:56.026Z,96.10
2017-08-24T04:27:22.457Z,96.20
2017-08-24T04:29:48.841Z,96.20
2017-08-24T04:32:15.238Z,96.30
2017-08-24T04:34:41.600Z,96.70
2017-08-24T04:37:08.032Z,96.50
2017-08-24T04:39:34.434Z,96.60
2017-08-24T04:42:00.877Z,96.60
2017-08-24T04:44:27.339Z,96.60
2017-08-24T04:46:54.069Z,96.60
2017-08-24T04:49:20.494Z,96.60
2017-08-24T04:51:46.849Z,96.60
2017-08-24T04:54:13.269Z,96.60
2017-08-24T04:56:39.667Z,96.50
2017-08-24T04:59:06.036Z,96.60
2017-08-24T05:01:32.423Z,96.60
2017-08-24T05:03:58.823Z,96.70
2017-08-24T05:06:25.195Z,96.60
2017-08-24T05:08:51.592Z,96.70
2017-08-24T05:11:17.942Z,96.60
2017-08-24T05:13:44.353Z,96.60
2017-08-24T05:16:10.721Z,96.60
2017-08-24T05:18:37.065Z,96.60
2017-08-24T05:21:03.794Z,96.70
2017-08-24T05:23:30.180Z,96.70
2017-08-24T05:25:56.512Z,96.70
2017-08-24T05:28:22.948Z,96.70
2017-08-24T05:30:49.319Z,96.70
2017-08-24T05:33:16.053Z,96.50
2017-08-24T05:35:42.511Z,96.50
2017-08-24T05:38:08.867Z,96.40
2017-08-24T05:40:35.313Z,96.40
2017-08-24T05:43:01.718Z,96.40
2017-08-24T05:45:28.086Z,96.40
2017-08-24T05:47:54.505Z,96.20
2017-08-24T05:50:20.874Z,96.20
2017-08-24T05:52:47.253Z,96.10
2017-08-24T05:55:13.654Z,96.10
2017-08-24T05:57:40.023Z,96.00
2017-08-24T06:00:06.734Z,95.90
2017-08-24T06:02:33.163Z,95.80
2017-08-24T06:04:59.585Z,95.70
2017-08-24T06:07:25.995Z,96.00
2017-08-24T06:09:52.726Z,95.60
2017-08-24T06:12:19.206Z,95.60
2017-08-24T06:14:45.553Z,95.60
2017-08-24T06:17:11.934Z,95.60
2017-08-24T06:19:38.548Z,95.70
2017-08-24T06:22:05.210Z,95.70
2017-08-24T06:24:31.560Z,96.00
2017-08-24T06:26:57.950Z,95.70
2017-08-24T06:29:24.339Z,95.80
2017-08-24T06:31:50.704Z,95.80
2017-08-24T06:34:17.144Z,95.90
2017-08-24T06:36:43.522Z,95.70
2017-08-24T06:39:09.900Z,95.60
2017-08-24T06:41:36.331Z,95.60
2017-08-24T06:44:03.024Z,95.50
2017-08-24T06:46:29.407Z,95.40
2017-08-24T06:48:55.789Z,95.40
2017-08-24T06:51:22.202Z,95.40
2017-08-24T06:53:48.555Z,95.30
2017-08-24T06:56:14.904Z,95.20
2017-08-24T06:58:41.716Z,95.00
2017-08-24T07:01:08.104Z,94.90
2017-08-24T07:03:41.480Z,94.70
2017-08-24T07:06:07.868Z,94.50
2017-08-24T07:08:34.253Z,94.40
2017-08-24T07:11:00.937Z,94.50
2017-08-24T07:13:27.370Z,94.30
2017-08-24T07:15:53.740Z,94.20
2017-08-24T07:18:20.115Z,94.20
2017-08-24T07:20:46.476Z,94.10
2017-08-24T07:23:12.859Z,94.00
2017-08-24T07:25:39.264Z,93.80
2017-08-24T07:28:05.717Z,93.80
2017-08-24T07:30:32.179Z,93.80
2017-08-24T07:32:58.841Z,93.80
2017-08-24T07:35:25.217Z,93.70
2017-08-24T07:37:51.629Z,93.70
2017-08-24T07:40:17.969Z,93.60
2017-08-24T07:42:44.321Z,93.40
2017-08-24T07:45:11.364Z,93.20
2017-08-24T07:47:37.740Z,92.90
2017-08-24T07:50:04.153Z,92.20
2017-08-24T07:52:30.550Z,91.60
2017-08-24T07:54:57.804Z,91.70
2017-08-24T07:57:24.161Z,91.30
2017-08-24T07:59:50.591Z,90.40
2017-08-24T08:02:17.042Z,90.40
2017-08-24T08:04:44.580Z,90.30
2017-08-24T08:07:10.954Z,89.30
2017-08-24T08:09:37.397Z,86.90
2017-08-24T08:12:03.767Z,85.80
2017-08-24T08:14:30.136Z,84.80
2017-08-24T08:16:58.940Z,84.00
2017-08-24T08:19:25.996Z,83.20
2017-08-24T08:21:52.399Z,82.50
2017-08-24T08:24:18.809Z,82.70
2017-08-24T08:26:45.198Z,81.10
2017-08-24T08:29:11.627Z,80.70
2017-08-24T08:31:38.278Z,80.40
2017-08-24T08:34:04.643Z,79.50
2017-08-24T08:36:31.030Z,79.00
2017-08-24T08:38:57.417Z,78.90
2017-08-24T08:41:23.859Z,78.70
2017-08-24T08:43:50.937Z,78.40
2017-08-24T08:46:17.437Z,77.80
2017-08-24T08:48:43.810Z,76.10
2017-08-24T08:51:10.226Z,75.10
2017-08-24T08:53:36.614Z,75.40
2017-08-24T08:56:03.003Z,75.00
2017-08-24T08:58:30.649Z,74.00
2017-08-24T09:00:57.077Z,72.40
2017-08-24T09:03:23.483Z,72.70
2017-08-24T09:05:49.911Z,72.40
2017-08-24T09:08:16.310Z,71.90
2017-08-24T09:10:42.666Z,71.10
2017-08-24T09:13:09.112Z,71.10
2017-08-24T09:15:35.525Z,71.20
2017-08-24T09:18:02.405Z,71.10
2017-08-24T09:20:28.862Z,70.00
2017-08-24T09:22:55.226Z,68.30
2017-08-24T09:25:22.306Z,68.70
2017-08-24T09:27:48.719Z,66.60
2017-08-24T09:30:15.514Z,65.80
2017-08-24T09:32:41.893Z,66.20
2017-08-24T09:35:09.062Z,64.50
2017-08-24T09:37:36.310Z,64.40
2017-08-24T09:40:03.245Z,65.10
2017-08-24T09:42:29.639Z,65.80
2017-08-24T09:44:55.993Z,66.50
2017-08-24T09:47:23.731Z,66.40
2017-08-24T09:49:50.104Z,64.80
2017-08-24T09:52:16.516Z,64.80
2017-08-24T09:54:42.857Z,64.60
2017-08-24T09:57:09.200Z,65.40
2017-08-24T09:59:35.572Z,66.10
2017-08-24T10:02:01.986Z,64.50
2017-08-24T10:04:28.319Z,65.20
2017-08-24T10:06:54.797Z,65.10
2017-08-24T10:09:21.175Z,63.80
2017-08-24T10:11:47.603Z,63.20
2017-08-24T10:14:14.125Z,63.30
2017-08-24T10:16:40.591Z,62.40
2017-08-24T10:19:08.134Z,61.70
2017-08-24T10:21:35.460Z,61.00
2017-08-24T10:24:02.504Z,60.00
2017-08-24T10:26:29.781Z,59.50
2017-08-24T10:28:56.236Z,58.70
2017-08-24T10:31:23.449Z,59.30
2017-08-24T10:33:49.901Z,59.70
2017-08-24T10:36:16.910Z,58.50
2017-08-24T10:38:43.274Z,56.10
2017-08-24T10:41:09.644Z,56.40
2017-08-24T10:43:35.993Z,56.10
2017-08-24T10:46:02.698Z,55.90
2017-08-24T10:48:29.043Z,55.50
2017-08-24T10:50:55.425Z,55.90
2017-08-24T10:53:22.337Z,55.40
2017-08-24T10:55:49.788Z,54.80
2017-08-24T10:58:16.196Z,54.30
2017-08-24T11:00:42.597Z,54.20
2017-08-24T11:03:09.024Z,53.80
2017-08-24T11:05:35.401Z,54.00
2017-08-24T11:08:02.559Z,53.60
2017-08-24T11:10:28.979Z,53.50
2017-08-24T11:12:55.765Z,52.90
2017-08-24T11:15:23.200Z,51.50
2017-08-24T11:17:49.760Z,50.30
2017-08-24T11:20:16.304Z,50.80
2017-08-24T11:22:42.693Z,51.90
2017-08-24T11:25:09.140Z,50.20
2017-08-24T11:27:35.508Z,50.50
2017-08-24T11:30:01.882Z,50.30
2017-08-24T11:32:29.123Z,50.30
2017-08-24T11:34:55.664Z,50.30
2017-08-24T11:37:22.506Z,50.70
2017-08-24T11:39:50.381Z,50.80
2017-08-24T11:42:16.880Z,50.50
2017-08-24T11:44:43.506Z,50.30
2017-08-24T11:47:10.376Z,50.80
2017-08-24T11:49:36.832Z,50.60
2017-08-24T11:52:03.227Z,50.70
2017-08-24T11:54:29.596Z,50.90
2017-08-24T11:56:56.069Z,50.40
2017-08-24T11:59:22.464Z,50.40
2017-08-24T12:01:48.907Z,49.60
2017-08-24T12:04:15.356Z,49.70
2017-08-24T12:06:41.849Z,50.70
2017-08-24T12:09:09.189Z,49.90
2017-08-24T12:11:35.948Z,49.80
2017-08-24T12:14:02.360Z,50.20
2017-08-24T12:16:28.724Z,50.50
2017-08-24T12:18:55.187Z,50.40
2017-08-24T12:21:23.785Z,51.90
2017-08-24T12:23:50.831Z,52.20
2017-08-24T12:26:17.692Z,52.30
2017-08-24T12:28:44.124Z,50.00
2017-08-24T12:31:11.354Z,49.70
2017-08-24T12:33:38.942Z,46.50
2017-08-24T12:36:05.383Z,46.90
2017-08-24T12:38:32.068Z,46.70
2017-08-24T12:40:58.409Z,47.10
2017-08-24T12:43:24.860Z,46.60
2017-08-24T12:45:51.287Z,46.40
2017-08-24T12:48:17.646Z,46.10
2017-08-24T12:50:44.006Z,46.00
2017-08-24T12:53:10.395Z,47.00
2017-08-24T12:55:36.913Z,47.30
2017-08-24T12:58:03.317Z,47.40
2017-08-24T13:00:30.375Z,46.40
2017-08-24T13:02:57.625Z,45.50
2017-08-24T13:05:24.423Z,44.80
2017-08-24T13:07:50.795Z,44.50
2017-08-24T13:10:18.453Z,44.10
2017-08-24T13:12:44.857Z,43.80
2017-08-24T13:15:11.222Z,43.00
2017-08-24T13:17:37.605Z,42.60
2017-08-24T13:23:04.425Z,41.70
2017-08-24T13:25:30.913Z,42.00
2017-08-24T13:27:57.533Z,42.30
2017-08-24T13:30:24.559Z,42.60
2017-08-24T13:32:51.297Z,42.70
2017-08-24T13:35:17.645Z,42.70
2017-08-24T13:37:44.022Z,42.50
2017-08-24T13:40:10.401Z,41.90
2017-08-24T13:42:36.880Z,42.10
2017-08-24T13:45:03.274Z,42.70
2017-08-24T13:47:29.771Z,42.80
2017-08-24T13:49:56.266Z,42.20
2017-08-24T13:52:22.655Z,42.70
2017-08-24T13:54:48.998Z,41.80
2017-08-24T13:57:15.496Z,42.00
2017-08-24T13:59:42.183Z,42.30
2017-08-24T14:02:09.392Z,42.60
2017-08-24T14:04:36.108Z,42.30
2017-08-24T14:07:02.486Z,42.70
2017-08-24T14:09:28.853Z,41.90
2017-08-24T14:11:55.325Z,41.80
2017-08-24T14:14:21.665Z,41.80
2017-08-24T14:16:48.123Z,41.80
2017-08-24T14:19:14.639Z,42.50
2017-08-24T14:21:41.001Z,42.30
2017-08-24T14:24:07.351Z,42.10
2017-08-24T14:26:35.611Z,41.70
2017-08-24T14:29:02.307Z,41.50
2017-08-24T14:31:28.654Z,41.50
2017-08-24T14:33:55.021Z,41.20
2017-08-24T14:36:21.352Z,41.00
2017-08-24T14:38:47.697Z,41.10
2017-08-24T14:41:14.702Z,41.50
2017-08-24T14:43:42.063Z,41.40
2017-08-24T14:46:08.449Z,41.70
2017-08-24T14:48:35.183Z,41.50
2017-08-24T14:51:01.562Z,41.20
2017-08-24T14:53:27.969Z,40.50
2017-08-24T14:56:01.428Z,40.90
2017-08-24T14:58:27.808Z,41.00
2017-08-24T15:00:54.180Z,41.80
2017-08-24T15:03:21.083Z,41.40
2017-08-24T15:05:47.489Z,41.80
2017-08-24T15:08:13.854Z,42.10
2017-08-24T15:10:40.249Z,42.30
2017-08-24T15:13:06.864Z,42.80
2017-08-24T15:15:33.504Z,42.80
2017-08-24T15:17:59.938Z,43.00
2017-08-24T15:20:26.663Z,43.20
2017-08-24T15:22:53.016Z,43.30
2017-08-24T15:25:19.388Z,43.00
2017-08-24T15:27:45.749Z,43.10
2017-08-24T15:30:12.108Z,43.10
2017-08-24T15:32:38.507Z,43.00
2017-08-24T15:35:04.831Z,42.60
2017-08-24T15:37:31.210Z,43.10
2017-08-24T15:39:57.579Z,43.70
2017-08-24T15:42:23.947Z,43.20
2017-08-24T15:44:50.309Z,43.50
2017-08-24T15:47:16.684Z,43.80
2017-08-24T15:49:43.237Z,43.30
2017-08-24T15:52:10.256Z,43.10
2017-08-24T15:54:36.613Z,43.90
2017-08-24T15:57:02.976Z,43.40
2017-08-24T15:59:29.362Z,43.00
2017-08-24T16:01:55.781Z,43.10
2017-08-24T16:04:22.385Z,42.80
2017-08-24T16:06:48.796Z,42.80
2017-08-24T16:09:15.330Z,42.80
2017-08-24T16:11:41.726Z,43.30
2017-08-24T16:14:08.157Z,43.60
2017-08-24T16:16:34.567Z,43.80
2017-08-24T16:19:01.073Z,44.40
2017-08-24T16:21:27.516Z,44.10
2017-08-24T16:23:53.996Z,43.60
2017-08-24T16:26:20.459Z,43.70
2017-08-24T16:28:46.897Z,44.70
2017-08-24T16:31:13.419Z,45.30
2017-08-24T16:33:39.871Z,45.00
2017-08-24T16:36:06.668Z,45.00
2017-08-24T16:38:33.088Z,45.40
2017-08-24T16:40:59.512Z,45.60
2017-08-24T16:43:25.942Z,46.80
2017-08-24T16:45:52.323Z,47.70
2017-08-24T16:48:18.728Z,48.40
2017-08-24T16:50:45.165Z,49.30
2017-08-24T16:53:11.587Z,51.30
2017-08-24T16:55:37.947Z,51.80
2017-08-24T16:58:04.584Z,52.40
2017-08-24T17:00:30.927Z,53.80
2017-08-24T17:03:03.399Z,54.60
2017-08-24T17:05:29.789Z,55.40
2017-08-24T17:07:56.165Z,56.00
2017-08-24T17:10:22.554Z,57.00
2017-08-24T17:12:48.884Z,57.90
2017-08-24T17:15:15.260Z,58.70
2017-08-24T17:17:42.890Z,59.30
2017-08-24T17:20:11.655Z,59.80
2017-08-24T17:22:39.239Z,60.80
2017-08-24T17:25:13.862Z,61.70
2017-08-24T17:27:40.390Z,62.30
2017-08-24T17:30:06.875Z,63.00
2017-08-24T17:32:33.404Z,64.30
2017-08-24T17:34:59.778Z,65.60
2017-08-24T17:37:26.157Z,66.60
2017-08-24T17:39:52.554Z,67.50
2017-08-24T17:42:18.927Z,68.00
2017-08-24T17:44:45.318Z,68.50
2017-08-24T17:47:11.717Z,69.10
2017-08-24T17:49:38.085Z,69.80
2017-08-24T17:52:04.759Z,70.50
2017-08-24T17:54:31.102Z,71.30
2017-08-24T17:56:57.469Z,72.10
2017-08-24T17:59:23.875Z,72.80
2017-08-24T18:01:50.265Z,73.40
2017-08-24T18:04:16.657Z,74.20
2017-08-24T18:06:43.177Z,75.00
2017-08-24T18:09:09.861Z,76.40
2017-08-24T18:11:36.371Z,77.30
2017-08-24T18:14:02.834Z,78.50
2017-08-24T18:16:29.585Z,79.50
2017-08-24T18:18:56.142Z,80.30
2017-08-24T18:21:22.615Z,81.20
2017-08-24T18:23:49.311Z,81.90
2017-08-24T18:26:15.704Z,82.80
2017-08-24T18:28:42.851Z,83.80
2017-08-24T18:31:09.232Z,83.70
2017-08-24T18:33:35.650Z,84.50
2017-08-24T18:36:02.069Z,85.20
2017-08-24T18:38:28.473Z,85.60
2017-08-24T18:40:55.118Z,85.80
2017-08-24T18:43:21.532Z,86.20
2017-08-24T18:45:47.926Z,86.60
2017-08-24T18:48:14.344Z,87.00
2017-08-24T18:50:40.770Z,87.20
2017-08-24T18:53:07.152Z,87.50
2017-08-24T18:55:33.533Z,87.60
2017-08-24T18:57:59.934Z,88.00
2017-08-24T19:00:26.378Z,88.80
2017-08-24T19:02:53.102Z,89.30
2017-08-24T19:05:19.491Z,88.80
2017-08-24T19:07:45.918Z,88.70
2017-08-24T19:10:12.377Z,88.70
2017-08-24T19:12:38.758Z,88.80
2017-08-24T19:15:05.267Z,89.40
2017-08-24T19:17:31.693Z,89.50
2017-08-24T19:19:58.270Z,89.90
2017-08-24T19:22:24.669Z,90.20
2017-08-24T19:24:51.357Z,90.30
2017-08-24T19:27:17.751Z,90.30
2017-08-24T19:29:44.196Z,90.10
2017-08-24T19:32:10.616Z,84.90
2017-08-24T19:34:37.067Z,79.50
2017-08-24T19:37:03.465Z,69.00
2017-08-24T19:39:29.917Z,66.80
2017-08-24T19:41:56.451Z,66.50
2017-08-24T19:44:22.895Z,67.00
2017-08-24T19:46:49.317Z,67.20
2017-08-24T19:49:15.747Z,68.40
2017-08-24T19:51:42.449Z,69.20
2017-08-24T19:54:08.848Z,70.00
2017-08-24T19:56:35.232Z,71.00
2017-08-24T19:59:01.649Z,72.00
2017-08-24T20:01:28.831Z,73.00
2017-08-24T20:03:55.643Z,73.90
2017-08-24T20:06:22.074Z,75.00
2017-08-24T20:08:48.752Z,75.50
2017-08-24T20:11:15.197Z,76.50
2017-08-24T20:13:41.561Z,77.30
2017-08-24T20:16:08.862Z,77.20
2017-08-24T20:18:35.388Z,77.20
2017-08-24T20:21:01.877Z,77.50
2017-08-24T20:23:28.325Z,77.60
2017-08-24T20:25:54.683Z,77.80
2017-08-24T20:28:21.126Z,78.40
2017-08-24T20:30:47.901Z,78.40
2017-08-24T20:33:14.244Z,79.20
2017-08-24T20:35:40.614Z,79.50
2017-08-24T20:38:07.173Z,80.10
2017-08-24T20:40:33.589Z,80.80
2017-08-24T20:43:00.020Z,82.70
2017-08-24T20:45:26.414Z,82.80
2017-08-24T20:47:52.826Z,85.30
2017-08-24T20:50:19.180Z,86.70
2017-08-24T20:52:45.888Z,87.30
2017-08-24T20:55:12.733Z,90.00
2017-08-24T20:57:39.110Z,90.30
2017-08-24T21:00:05.515Z,90.80
2017-08-24T21:02:31.871Z,91.40
2017-08-24T21:04:58.255Z,91.70
2017-08-24T21:07:24.659Z,92.30
2017-08-24T21:09:51.044Z,92.90
2017-08-24T21:12:17.411Z,93.30
2017-08-24T21:14:44.203Z,94.20
2017-08-24T21:17:10.550Z,94.30
2017-08-24T21:19:36.952Z,94.20
2017-08-24T21:22:03.308Z,94.40
2017-08-24T21:24:29.732Z,94.40
2017-08-24T21:26:56.095Z,94.40
2017-08-24T21:29:22.460Z,94.70
2017-08-24T21:31:48.844Z,95.00
2017-08-24T21:34:15.207Z,95.00
2017-08-24T21:36:41.937Z,95.50
2017-08-24T21:39:08.342Z,95.70
2017-08-24T21:41:34.698Z,95.50
2017-08-24T21:44:01.122Z,95.70
2017-08-24T21:46:27.516Z,95.50
2017-08-24T21:48:53.881Z,95.80
2017-08-24T21:51:20.239Z,95.90
2017-08-24T21:53:46.609Z,95.80
2017-08-24T21:56:12.964Z,95.80
2017-08-24T21:58:39.622Z,95.80
2017-08-24T22:01:05.947Z,95.70
2017-08-24T22:03:32.356Z,95.90
2017-08-24T22:05:58.729Z,95.90
2017-08-24T22:08:25.118Z,95.70
2017-08-24T22:10:51.473Z,95.60
2017-08-24T22:13:17.859Z,95.40
2017-08-24T22:15:44.305Z,95.30
2017-08-24T22:18:10.699Z,95.10
2017-08-24T22:20:37.374Z,95.10
2017-08-24T22:23:03.659Z,95.00
2017-08-24T22:25:30.032Z,94.90
2017-08-24T22:27:56.396Z,94.70
2017-08-24T22:30:22.734Z,94.60
2017-08-24T22:32:49.105Z,94.50
2017-08-24T22:35:16.354Z,94.40
2017-08-24T22:37:42.824Z,94.30
2017-08-24T22:40:09.209Z,94.40
2017-08-24T22:42:36.261Z,94.40
2017-08-24T22:45:03.310Z,94.20
2017-08-24T22:47:30.086Z,94.30
2017-08-24T22:49:56.428Z,94.40
2017-08-24T22:52:22.777Z,94.30
2017-08-24T22:54:55.262Z,93.90
2017-08-24T22:57:27.566Z,93.60
2017-08-24T22:59:59.876Z,93.50
2017-08-24T23:02:32.209Z,93.60
2017-08-24T23:04:58.569Z,93.80
2017-08-24T23:07:24.935Z,93.80
2017-08-24T23:09:51.291Z,93.80
2017-08-24T23:12:17.657Z,93.80
2017-08-24T23:14:44.141Z,93.70
2017-08-24T23:17:10.518Z,93.70
2017-08-24T23:19:37.238Z,93.60
2017-08-24T23:22:03.617Z,93.50
2017-08-24T23:24:29.965Z,93.40
2017-08-24T23:26:56.409Z,93.50
2017-08-24T23:29:22.774Z,93.60
2017-08-24T23:31:49.204Z,93.70
2017-08-24T23:34:16.102Z,93.80
2017-08-24T23:36:42.828Z,94.00
2017-08-24T23:39:09.186Z,94.10
2017-08-24T23:41:35.958Z,94.10
2017-08-24T23:46:35.759Z,94.10
2017-08-24T23:49:02.115Z,94.20
2017-08-24T23:51:28.474Z,94.20
2017-08-24T23:53:54.868Z,94.20
2017-08-24T23:56:21.254Z,94.30
2017-08-24T23:58:47.659Z,94.80
